createdAt,value
2022-11-29T00:01:23.870Z,25.95
2022-11-29T00:03:52.177Z,28.10
2022-11-29T00:06:21.692Z,31.02
2022-11-29T00:08:49.869Z,30.67
2022-11-29T00:11:19.215Z,33.60
2022-11-29T00:13:47.133Z,25.48
2022-11-29T00:16:16.131Z,34.38
2022-11-29T00:18:44.014Z,33.45
2022-11-29T00:21:11.131Z,27.92
2022-11-29T00:23:39.298Z,29.13
2022-11-29T00:26:08.651Z,32.10
2022-11-29T00:28:37.445Z,31.95
2022-11-29T00:31:16.276Z,29.42
2022-11-29T00:33:44.133Z,29.58
2022-11-29T00:36:11.985Z,33.22
2022-11-29T00:38:41.483Z,33.30
2022-11-29T00:41:09.570Z,26.65
2022-11-29T00:43:38.579Z,27.73
2022-11-29T00:46:06.481Z,33.83
2022-11-29T00:48:36.734Z,33.10
2022-11-29T00:51:05.725Z,33.53
2022-11-29T00:53:35.061Z,31.55
2022-11-29T00:56:03.053Z,31.95
2022-11-29T00:58:31.376Z,32.88
2022-11-29T01:00:58.941Z,37.17
2022-11-29T01:03:26.806Z,30.08
2022-11-29T01:06:00.977Z,31.58
2022-11-29T01:08:29.211Z,31.27
2022-11-29T01:11:04.847Z,32.55
2022-11-29T01:13:32.952Z,32.85
2022-11-29T01:16:00.337Z,29.00
2022-11-29T01:18:28.725Z,31.35
2022-11-29T01:20:59.137Z,32.60
2022-11-29T01:23:27.281Z,31.45
2022-11-29T01:26:04.257Z,29.42
2022-11-29T01:28:33.031Z,29.88
2022-11-29T01:31:04.923Z,35.35
2022-11-29T01:33:33.170Z,29.60
2022-11-29T01:36:02.845Z,31.15
2022-11-29T01:38:31.334Z,32.55
2022-11-29T01:41:01.796Z,29.52
2022-11-29T01:43:30.371Z,33.30
2022-11-29T01:45:58.059Z,28.33
2022-11-29T01:48:30.732Z,25.50
2022-11-29T01:51:01.574Z,32.03
2022-11-29T01:53:29.577Z,36.67
2022-11-29T01:56:03.712Z,28.23
2022-11-29T01:58:32.098Z,30.80
2022-11-29T02:01:01.175Z,27.58
2022-11-29T02:03:29.210Z,35.33
2022-11-29T02:05:56.825Z,30.80
2022-11-29T02:08:31.825Z,29.75
2022-11-29T02:11:30.939Z,25.63
2022-11-29T02:14:10.855Z,29.25
2022-11-29T02:16:47.723Z,30.58
2022-11-29T02:19:35.059Z,26.38
2022-11-29T02:22:08.192Z,28.55
2022-11-29T02:25:23.249Z,32.17
2022-11-29T02:28:41.058Z,28.45
2022-11-29T02:32:00.116Z,29.98
2022-11-29T02:34:52.181Z,29.20
2022-11-29T02:37:41.953Z,29.08
2022-11-29T02:40:33.642Z,33.47
2022-11-29T02:43:43.267Z,28.23
2022-11-29T02:46:27.152Z,26.70
2022-11-29T02:49:03.781Z,30.35
2022-11-29T02:51:42.073Z,32.60
2022-11-29T02:54:16.377Z,32.05
2022-11-29T02:56:51.346Z,30.45
2022-11-29T02:59:34.093Z,29.25
2022-11-29T03:02:12.961Z,31.30
2022-11-29T03:04:47.688Z,31.25
2022-11-29T03:07:27.447Z,28.75
2022-11-29T03:10:00.955Z,33.20
2022-11-29T03:12:37.831Z,28.92
2022-11-29T03:15:19.502Z,30.38
2022-11-29T03:17:57.673Z,33.33
2022-11-29T03:20:37.718Z,27.83
2022-11-29T03:23:23.192Z,32.28
2022-11-29T03:25:57.704Z,30.23
2022-11-29T03:28:31.526Z,32.80
2022-11-29T03:31:06.964Z,33.75
2022-11-29T03:33:43.201Z,33.13
2022-11-29T03:36:18.947Z,35.72
2022-11-29T03:38:48.782Z,29.05
2022-11-29T03:41:23.117Z,29.17
2022-11-29T03:43:57.444Z,28.17
2022-11-29T03:46:32.079Z,29.08
2022-11-29T03:49:03.836Z,30.88
2022-11-29T03:51:44.554Z,33.45
2022-11-29T03:54:16.684Z,34.45
2022-11-29T03:56:45.201Z,32.97
2022-11-29T03:59:26.322Z,30.30
2022-11-29T04:02:11.034Z,32.13
2022-11-29T04:05:22.238Z,28.40
2022-11-29T04:08:13.376Z,32.45
2022-11-29T04:11:23.087Z,31.00
2022-11-29T04:14:26.674Z,30.02
2022-11-29T04:17:35.550Z,38.28
2022-11-29T04:20:41.104Z,32.03
2022-11-29T04:23:38.800Z,42.10
2022-11-29T04:26:33.545Z,34.72
2022-11-29T04:29:29.944Z,32.20
2022-11-29T04:32:20.439Z,32.95
2022-11-29T04:35:23.417Z,30.60
2022-11-29T04:38:09.770Z,30.80
2022-11-29T04:40:55.619Z,29.48
2022-11-29T04:43:47.303Z,36.63
2022-11-29T04:46:40.865Z,33.45
2022-11-29T04:49:26.069Z,33.60
2022-11-29T04:52:12.000Z,26.83
2022-11-29T04:54:46.162Z,30.75
2022-11-29T04:57:24.431Z,30.23
2022-11-29T05:00:00.306Z,28.35
2022-11-29T05:02:36.922Z,32.22
2022-11-29T05:05:18.538Z,29.45
2022-11-29T05:07:53.685Z,31.75
2022-11-29T05:10:29.168Z,30.58
2022-11-29T05:13:06.243Z,27.95
2022-11-29T05:16:12.519Z,30.83
2022-11-29T05:18:58.136Z,28.67
2022-11-29T05:21:37.280Z,29.90
2022-11-29T05:24:17.556Z,33.80
2022-11-29T05:26:53.142Z,35.78
2022-11-29T05:29:28.634Z,39.13
2022-11-29T05:32:14.231Z,26.67
2022-11-29T05:35:03.119Z,33.38
2022-11-29T05:37:44.208Z,32.83
2022-11-29T05:40:36.345Z,32.90
2022-11-29T05:43:14.978Z,33.15
2022-11-29T05:45:48.181Z,32.42
2022-11-29T05:48:26.684Z,26.63
2022-11-29T05:51:05.500Z,27.55
2022-11-29T05:53:40.929Z,32.22
2022-11-29T05:56:15.916Z,29.13
2022-11-29T05:58:50.428Z,32.03
2022-11-29T06:01:22.981Z,27.52
2022-11-29T06:04:04.434Z,29.50
2022-11-29T06:06:40.386Z,33.28
2022-11-29T06:09:15.649Z,31.20
2022-11-29T06:11:46.163Z,34.13
2022-11-29T06:14:25.215Z,30.98
2022-11-29T06:17:12.097Z,30.05
2022-11-29T06:20:07.446Z,28.42
2022-11-29T06:22:58.150Z,27.70
2022-11-29T06:25:43.554Z,28.85
2022-11-29T06:28:24.690Z,30.63
2022-11-29T06:30:58.010Z,27.85
2022-11-29T06:33:31.752Z,22.98
2022-11-29T06:36:11.991Z,26.60
2022-11-29T06:38:39.689Z,26.85
2022-11-29T06:41:16.423Z,24.95
2022-11-29T06:43:44.352Z,22.15
2022-11-29T06:46:20.940Z,27.40
2022-11-29T06:48:56.571Z,19.95
2022-11-29T06:51:36.321Z,25.20
2022-11-29T06:54:19.534Z,20.85
2022-11-29T06:56:56.276Z,24.13
2022-11-29T06:59:37.421Z,19.25
2022-11-29T07:02:24.346Z,19.75
2022-11-29T07:05:03.452Z,15.93
2022-11-29T07:07:34.253Z,23.83
2022-11-29T07:10:04.322Z,23.38
2022-11-29T07:12:32.988Z,21.33
2022-11-29T07:15:00.970Z,21.50
2022-11-29T07:17:37.440Z,22.02
2022-11-29T07:20:15.920Z,22.80
2022-11-29T07:23:01.109Z,19.73
2022-11-29T07:25:38.571Z,19.67
2022-11-29T07:28:19.337Z,23.50
2022-11-29T07:30:53.593Z,20.52
2022-11-29T07:33:31.876Z,20.92
2022-11-29T07:36:11.747Z,19.08
2022-11-29T07:38:55.999Z,21.80
2022-11-29T07:41:31.086Z,23.00
2022-11-29T07:44:08.008Z,23.35
2022-11-29T07:46:35.450Z,21.08
2022-11-29T07:49:03.141Z,23.77
2022-11-29T07:51:32.110Z,21.75
2022-11-29T07:54:01.425Z,23.25
2022-11-29T07:56:28.930Z,20.67
2022-11-29T07:58:56.699Z,24.00
2022-11-29T08:01:24.267Z,23.17
2022-11-29T08:03:52.105Z,25.00
2022-11-29T08:06:24.833Z,27.23
2022-11-29T08:08:52.766Z,21.05
2022-11-29T08:11:21.390Z,26.85
2022-11-29T08:13:49.501Z,28.13
2022-11-29T08:16:17.376Z,26.90
2022-11-29T08:18:45.395Z,23.80
2022-11-29T08:21:12.627Z,29.83
2022-11-29T08:23:40.688Z,25.50
2022-11-29T08:26:08.024Z,22.23
2022-11-29T08:28:37.198Z,21.75
2022-11-29T08:31:06.737Z,24.38
2022-11-29T08:33:35.740Z,20.88
2022-11-29T08:36:06.427Z,19.27
2022-11-29T08:38:34.513Z,23.50
2022-11-29T08:41:01.930Z,27.30
2022-11-29T08:43:29.965Z,25.73
2022-11-29T08:45:58.849Z,25.45
2022-11-29T08:48:26.922Z,25.08
2022-11-29T08:50:56.083Z,25.65
2022-11-29T08:53:24.797Z,26.63
2022-11-29T08:55:52.378Z,19.95
2022-11-29T08:58:20.255Z,22.17
2022-11-29T09:00:47.580Z,18.73
2022-11-29T09:03:17.022Z,20.67
2022-11-29T09:05:44.517Z,23.42
2022-11-29T09:08:12.570Z,23.08
2022-11-29T09:10:41.103Z,19.85
2022-11-29T09:13:10.006Z,21.25
2022-11-29T09:15:37.635Z,22.02
2022-11-29T09:18:06.016Z,24.52
2022-11-29T09:20:34.854Z,27.10
2022-11-29T09:23:03.015Z,22.40
2022-11-29T09:25:30.495Z,25.10
2022-11-29T09:27:58.798Z,25.42
2022-11-29T09:30:26.178Z,23.73
2022-11-29T09:32:54.003Z,23.48
2022-11-29T09:35:21.447Z,23.27
2022-11-29T09:37:51.496Z,25.58
2022-11-29T09:40:21.913Z,24.45
2022-11-29T09:43:00.606Z,26.02
2022-11-29T09:45:34.485Z,22.80
2022-11-29T09:48:22.309Z,26.05
2022-11-29T09:50:54.126Z,26.00
2022-11-29T09:53:38.534Z,28.08
2022-11-29T09:56:16.645Z,23.38
2022-11-29T09:58:49.642Z,23.67
2022-11-29T10:01:23.190Z,27.15
2022-11-29T10:03:54.318Z,26.45
2022-11-29T10:06:25.459Z,26.58
2022-11-29T10:08:59.508Z,23.48
2022-11-29T10:11:32.025Z,26.85
2022-11-29T10:14:06.151Z,27.58
2022-11-29T10:16:41.930Z,26.65
2022-11-29T10:19:18.929Z,25.77
2022-11-29T10:21:55.226Z,27.02
2022-11-29T10:24:27.073Z,25.20
2022-11-29T10:26:54.414Z,25.33
2022-11-29T10:29:23.527Z,27.15
2022-11-29T10:31:51.073Z,25.23
2022-11-29T10:34:21.615Z,23.25
2022-11-29T10:36:52.110Z,24.25
2022-11-29T10:39:24.618Z,23.85
2022-11-29T10:41:56.488Z,21.63
2022-11-29T10:44:25.406Z,22.92
2022-11-29T10:46:53.625Z,21.25
2022-11-29T10:49:28.081Z,21.90
2022-11-29T10:51:55.446Z,18.73
2022-11-29T10:54:37.805Z,23.65
2022-11-29T10:57:13.097Z,28.58
2022-11-29T10:59:41.557Z,21.13
2022-11-29T11:02:18.226Z,16.02
2022-11-29T11:04:47.803Z,26.27
2022-11-29T11:07:23.914Z,22.13
2022-11-29T11:09:55.581Z,23.92
2022-11-29T11:12:27.298Z,25.90
2022-11-29T11:15:14.837Z,22.67
2022-11-29T11:17:55.719Z,24.30
2022-11-29T11:20:25.267Z,19.95
2022-11-29T11:22:58.396Z,24.45
2022-11-29T11:25:28.990Z,20.13
2022-11-29T11:28:10.621Z,23.05
2022-11-29T11:30:39.053Z,22.30
2022-11-29T11:33:07.929Z,22.00
2022-11-29T11:35:36.217Z,23.80
2022-11-29T11:38:03.601Z,23.98
2022-11-29T11:40:31.824Z,21.98
2022-11-29T11:43:02.214Z,22.00
2022-11-29T11:45:35.167Z,23.30
2022-11-29T11:48:05.481Z,25.67
2022-11-29T11:50:37.639Z,22.17
2022-11-29T11:53:07.920Z,21.15
2022-11-29T11:55:39.646Z,18.02
2022-11-29T11:58:21.962Z,22.63
2022-11-29T12:01:08.651Z,21.98
2022-11-29T12:03:44.155Z,23.52
2022-11-29T12:06:27.152Z,20.15
2022-11-29T12:08:59.353Z,20.02
2022-11-29T12:13:58.676Z,20.55
2022-11-29T12:16:31.727Z,19.90
2022-11-29T12:19:04.374Z,20.83
2022-11-29T12:21:37.561Z,22.58
2022-11-29T12:29:30.136Z,17.40
2022-11-29T12:32:09.292Z,19.17
2022-11-29T12:34:51.286Z,19.70
2022-11-29T12:37:25.360Z,19.85
2022-11-29T12:39:59.965Z,18.52
2022-11-29T12:42:46.810Z,19.15
2022-11-29T12:45:30.084Z,17.60
2022-11-29T12:48:09.787Z,21.00
2022-11-29T12:50:45.617Z,19.17
2022-11-29T12:53:33.657Z,17.35
2022-11-29T12:56:13.902Z,19.77
2022-11-29T12:58:53.772Z,22.23
2022-11-29T13:01:30.760Z,18.70
2022-11-29T13:04:09.788Z,15.63
2022-11-29T13:06:44.803Z,16.92
2022-11-29T13:09:26.808Z,19.00
2022-11-29T13:11:58.470Z,18.52
2022-11-29T13:14:48.241Z,19.58
2022-11-29T13:17:27.974Z,19.42
2022-11-29T13:19:58.324Z,18.23
2022-11-29T13:22:32.469Z,14.20
2022-11-29T13:25:04.357Z,17.42
2022-11-29T13:27:35.483Z,17.90
2022-11-29T13:30:04.634Z,17.55
2022-11-29T13:32:35.399Z,18.17
2022-11-29T13:35:12.674Z,20.55
2022-11-29T13:37:53.514Z,19.70
2022-11-29T13:40:35.087Z,19.10
2022-11-29T13:43:12.180Z,18.60
2022-11-29T13:45:46.645Z,19.48
2022-11-29T13:48:34.251Z,18.05
2022-11-29T13:51:34.076Z,19.85
2022-11-29T13:54:03.410Z,18.55
2022-11-29T13:56:35.638Z,18.67
2022-11-29T13:59:07.982Z,18.58
2022-11-29T14:01:47.221Z,17.90
2022-11-29T14:04:37.735Z,14.55
2022-11-29T14:07:09.934Z,13.25
2022-11-29T14:09:57.082Z,13.93
2022-11-29T14:12:35.586Z,15.00
2022-11-29T14:15:15.489Z,15.70
2022-11-29T14:17:50.786Z,20.13
2022-11-29T14:20:55.808Z,19.58
2022-11-29T14:23:35.416Z,18.50
2022-11-29T14:26:28.768Z,19.92
2022-11-29T14:28:58.285Z,17.92
2022-11-29T14:31:55.020Z,18.50
2022-11-29T14:34:38.379Z,14.82
2022-11-29T14:37:35.653Z,16.35
2022-11-29T14:40:17.008Z,15.43
2022-11-29T14:42:47.449Z,16.70
2022-11-29T14:45:23.747Z,14.85
2022-11-29T14:47:51.895Z,15.32
2022-11-29T14:50:31.261Z,18.55
2022-11-29T14:55:35.331Z,20.77
2022-11-29T14:58:16.783Z,23.77
2022-11-29T15:01:10.727Z,20.88
2022-11-29T15:03:48.540Z,18.70
2022-11-29T15:06:26.130Z,21.33
2022-11-29T15:09:04.480Z,22.70
2022-11-29T15:11:43.317Z,20.83
2022-11-29T15:14:18.969Z,19.17
2022-11-29T15:17:04.731Z,19.55
2022-11-29T15:19:57.681Z,26.80
2022-11-29T15:22:28.149Z,27.27
2022-11-29T15:25:00.548Z,30.13
2022-11-29T15:27:29.329Z,27.00
2022-11-29T15:29:56.712Z,30.17
2022-11-29T15:32:26.203Z,31.73
2022-11-29T15:34:55.268Z,25.02
2022-11-29T15:37:41.249Z,26.13
2022-11-29T15:40:15.018Z,29.98
2022-11-29T15:42:45.184Z,27.75
2022-11-29T15:45:27.339Z,32.47
2022-11-29T15:47:55.909Z,26.42
2022-11-29T15:50:25.721Z,30.15
2022-11-29T15:53:06.053Z,31.92
2022-11-29T15:55:35.407Z,26.92
2022-11-29T15:58:08.707Z,24.40
2022-11-29T16:00:36.848Z,26.02
2022-11-29T16:03:06.448Z,27.23
2022-11-29T16:05:37.002Z,25.98
2022-11-29T16:08:12.335Z,26.08
2022-11-29T16:10:44.140Z,26.85
2022-11-29T16:13:32.199Z,27.35
2022-11-29T16:16:06.083Z,24.25
2022-11-29T16:18:34.195Z,28.00
2022-11-29T16:21:03.527Z,25.23
2022-11-29T16:23:36.453Z,30.40
2022-11-29T16:26:15.087Z,25.60
2022-11-29T16:28:45.488Z,29.17
2022-11-29T16:31:18.078Z,25.70
2022-11-29T16:33:47.252Z,28.77
2022-11-29T16:36:17.855Z,26.20
2022-11-29T16:38:47.087Z,26.60
2022-11-29T16:41:25.145Z,28.13
2022-11-29T16:43:54.599Z,29.33
2022-11-29T16:46:34.431Z,26.58
2022-11-29T16:49:24.671Z,30.60
2022-11-29T16:51:53.992Z,28.77
2022-11-29T16:54:23.969Z,28.67
2022-11-29T16:56:54.424Z,29.50
2022-11-29T16:59:27.519Z,26.63
2022-11-29T17:01:56.243Z,30.10
2022-11-29T17:04:24.868Z,27.42
2022-11-29T17:06:53.910Z,29.50
2022-11-29T17:09:26.789Z,32.25
2022-11-29T17:11:56.786Z,28.13
2022-11-29T17:14:24.606Z,33.45
2022-11-29T17:16:52.106Z,31.90
2022-11-29T17:19:23.514Z,32.33
2022-11-29T17:21:51.665Z,33.10
2022-11-29T17:24:20.750Z,35.92
2022-11-29T17:26:48.123Z,34.97
2022-11-29T17:29:18.349Z,39.15
2022-11-29T17:31:46.879Z,33.38
2022-11-29T17:34:14.723Z,37.00
2022-11-29T17:36:42.605Z,33.75
2022-11-29T17:39:10.440Z,30.17
2022-11-29T17:41:37.899Z,36.17
2022-11-29T17:44:06.167Z,33.42
2022-11-29T17:46:37.136Z,36.80
2022-11-29T17:49:06.758Z,30.90
2022-11-29T17:51:52.738Z,29.25
2022-11-29T17:54:22.042Z,32.45
2022-11-29T17:56:49.753Z,31.00
2022-11-29T17:59:18.111Z,29.10
2022-11-29T18:01:47.472Z,35.90
2022-11-29T18:04:15.584Z,30.48
2022-11-29T18:06:43.074Z,29.85
2022-11-29T18:09:11.514Z,30.40
2022-11-29T18:11:48.013Z,36.05
2022-11-29T18:14:18.839Z,23.73
2022-11-29T18:16:48.048Z,28.77
2022-11-29T18:19:18.186Z,30.63
2022-11-29T18:21:45.726Z,26.45
2022-11-29T18:24:13.932Z,28.58
2022-11-29T18:26:41.720Z,28.58
2022-11-29T18:29:10.161Z,28.70
2022-11-29T18:31:39.672Z,27.15
2022-11-29T18:34:10.512Z,24.13
2022-11-29T18:36:40.155Z,26.50
2022-11-29T18:39:10.318Z,34.25
2022-11-29T18:41:38.250Z,28.50
2022-11-29T18:44:09.255Z,29.17
2022-11-29T18:46:38.410Z,21.73
2022-11-29T18:49:09.335Z,25.08
2022-11-29T18:51:38.099Z,28.70
2022-11-29T18:54:06.620Z,28.63
2022-11-29T18:56:36.374Z,25.40
2022-11-29T18:59:07.205Z,26.42
2022-11-29T19:01:35.645Z,22.95
2022-11-29T19:04:03.845Z,22.02
2022-11-29T19:06:39.331Z,22.50
2022-11-29T19:09:12.064Z,23.42
2022-11-29T19:11:39.841Z,28.10
2022-11-29T19:14:09.854Z,26.25
2022-11-29T19:16:38.225Z,24.65
2022-11-29T19:19:06.218Z,22.30
2022-11-29T19:21:35.434Z,23.77
2022-11-29T19:24:05.060Z,25.88
2022-11-29T19:26:33.075Z,19.23
2022-11-29T19:29:01.771Z,23.15
2022-11-29T19:31:29.524Z,25.10
2022-11-29T19:33:58.001Z,24.63
2022-11-29T19:36:27.240Z,25.77
2022-11-29T19:38:57.458Z,25.10
2022-11-29T19:41:27.421Z,22.27
2022-11-29T19:43:56.760Z,25.45
2022-11-29T19:46:26.123Z,22.63
2022-11-29T19:48:55.343Z,24.13
2022-11-29T19:51:23.948Z,21.58
2022-11-29T19:53:57.990Z,23.63
2022-11-29T19:56:25.615Z,22.88
2022-11-29T19:58:53.810Z,27.20
2022-11-29T20:01:22.950Z,21.05
2022-11-29T20:03:52.174Z,23.27
2022-11-29T20:06:19.774Z,24.83
2022-11-29T20:08:48.196Z,24.85
2022-11-29T20:11:19.775Z,22.83
2022-11-29T20:13:54.793Z,26.55
2022-11-29T20:16:22.469Z,24.92
2022-11-29T20:18:51.662Z,24.63
2022-11-29T20:21:20.901Z,22.75
2022-11-29T20:23:49.828Z,23.33
2022-11-29T20:26:20.249Z,21.17
2022-11-29T20:28:49.326Z,20.70
2022-11-29T20:31:19.249Z,22.60
2022-11-29T20:33:47.612Z,20.40
2022-11-29T20:36:31.858Z,21.98
2022-11-29T20:39:11.730Z,21.15
2022-11-29T20:41:48.617Z,26.88
2022-11-29T20:44:20.562Z,28.65
2022-11-29T20:46:48.261Z,26.13
2022-11-29T20:49:16.693Z,25.95
2022-11-29T20:51:51.651Z,25.52
2022-11-29T20:54:20.374Z,30.65
2022-11-29T20:56:49.288Z,28.40
2022-11-29T20:59:17.462Z,29.75
2022-11-29T21:01:45.252Z,29.00
2022-11-29T21:04:13.391Z,32.63
2022-11-29T21:06:40.927Z,38.65
2022-11-29T21:09:08.655Z,43.97
2022-11-29T21:11:36.581Z,42.60
2022-11-29T21:14:08.396Z,39.42
2022-11-29T21:16:36.192Z,43.53
2022-11-29T21:19:04.900Z,45.97
2022-11-29T21:21:40.778Z,39.17
2022-11-29T21:24:16.845Z,47.53
2022-11-29T21:26:50.915Z,45.35
2022-11-29T21:29:22.078Z,47.63
2022-11-29T21:31:51.917Z,49.70
2022-11-29T21:34:20.626Z,41.53
2022-11-29T21:36:53.300Z,39.58
2022-11-29T21:39:21.294Z,48.03
2022-11-29T21:41:48.882Z,46.42
2022-11-29T21:44:17.083Z,45.85
2022-11-29T21:46:45.876Z,45.47
2022-11-29T21:49:13.767Z,51.70
2022-11-29T21:51:41.211Z,51.85
2022-11-29T21:54:09.474Z,50.95
2022-11-29T21:56:37.090Z,53.72
2022-11-29T21:59:05.974Z,56.88
2022-11-29T22:01:33.653Z,47.42
2022-11-29T22:04:03.750Z,57.53
2022-11-29T22:06:31.837Z,57.95
2022-11-29T22:09:00.280Z,54.33
2022-11-29T22:11:27.794Z,51.15
2022-11-29T22:13:56.769Z,52.78
2022-11-29T22:16:25.078Z,53.85
2022-11-29T22:18:53.409Z,62.75
2022-11-29T22:21:22.663Z,53.70
2022-11-29T22:23:52.291Z,59.63
2022-11-29T22:26:19.929Z,57.60
2022-11-29T22:28:47.872Z,60.17
2022-11-29T22:31:15.413Z,58.17
2022-11-29T22:33:43.564Z,64.88
2022-11-29T22:36:13.290Z,51.40
2022-11-29T22:38:42.457Z,60.78
2022-11-29T22:41:11.506Z,61.63
2022-11-29T22:43:41.338Z,63.00
2022-11-29T22:46:11.403Z,62.72
2022-11-29T22:48:40.714Z,59.47
2022-11-29T22:51:09.887Z,56.13
2022-11-29T22:53:39.455Z,68.90
2022-11-29T22:56:11.354Z,79.05
2022-11-29T22:58:39.353Z,61.42
2022-11-29T23:01:09.174Z,61.13
2022-11-29T23:03:39.048Z,55.95
2022-11-29T23:06:08.240Z,61.28
2022-11-29T23:08:36.936Z,63.42
2022-11-29T23:11:06.328Z,62.60
2022-11-29T23:13:37.324Z,57.92
2022-11-29T23:16:07.194Z,59.47
2022-11-29T23:18:36.355Z,64.25
2022-11-29T23:21:05.796Z,66.85
2022-11-29T23:23:34.319Z,67.97
2022-11-29T23:26:02.558Z,70.28
2022-11-29T23:28:30.796Z,68.43
2022-11-29T23:31:00.601Z,61.45
2022-11-29T23:33:28.834Z,70.25
2022-11-29T23:36:00.212Z,63.85
2022-11-29T23:38:27.956Z,62.28
2022-11-29T23:40:55.378Z,58.33
2022-11-29T23:43:23.989Z,74.30
2022-11-29T23:45:51.466Z,71.07
2022-11-29T23:48:20.693Z,69.43
2022-11-29T23:50:47.971Z,79.28
2022-11-29T23:53:18.508Z,64.80
2022-11-29T23:55:46.003Z,82.35
2022-11-29T23:58:13.715Z,87.80
